Largo, MD (20792)

4:20 AM EDT on August 31, 2015 (GMT -0400)
Cabin Branch Acres | | Change Station
CLOSE
Current Station
Personal Weather Station
Location: Upper Marlboro, MD
Elevation: 95 ft
Nearby Weather Stations

Elev 95 ft 38.85 °N, 76.80 °W | Updated 13 seconds ago

Mostly Cloudy
Mostly Cloudy
73.4 °F
Feels Like 72 °F
N
0.0
Wind Variable Wind from South
Gusts 0.0 mph

Today
High -- | Low -- °F
--% Chance of Precip.
Yesterday
High -- | Low -- °F
Precip. -- in
6:34 AM 7:39 PM
Waning Gibbous, 96% visible
Pressure 30.07 in
Visibility 10.0 miles
Clouds Scattered Clouds 11000 ft
Heat Index 72 °F
Dew Point 70 °F
Humidity 88%
Rainfall 0.00 in
Snow Depth Not available.
UV 0.0 out of 12
Pollen 10.30 out of 12
Air Quality Not available.
Flu Activity Not available.
METAR KADW 310758Z AUTO 20006KT 10SM SCT110 24/19 A3006 RMK AO2 SLP183 T02350185
Pressure 30.07 in
Visibility 10.0 miles
Clouds Scattered Clouds 11000 ft
Heat Index 72 °F
Dew Point 70 °F
Humidity 88%
Rainfall 0.00 in
Snow Depth Not available.
UV 0.0 out of 12
Pollen 10.30 out of 12
Air Quality Not available.
Flu Activity Not available.
METAR KADW 310758Z AUTO 20006KT 10SM SCT110 24/19 A3006 RMK AO2 SLP183 T02350185

10-Day Weather Forecast

×

Almanac

Astronomy

Aug. 31, 2015 Rise Set
Actual Time
Civil Twilight
Nautical Twilight
Astronomical Twilight
Moon
Length of Visible Light
Length of Day
Tomorrow will be .
, % of the Moon is Illuminated

Today's Extremes

State Highs State Lows

Community

WunderPhotos

Upload Photos

1,851,220 photos uploaded!

WunderBlogs® & News

Nearby

Air Quality

  Air Quality AQ Index Pollutant
Not available.

Snow Depth

Station Depth Elevation

Earthquake Activity

City Distance Mag. Time & Date
Minimum magnitude displayed is 2.5.

Coastal Water Temperatures

Place Temperature

Stations

Nearby Weather Stations

Station Location Temp. Windchill Dew Point Humidity Wind Precip. Elev Updated Type